createdAt,value
2024-03-16T00:01:04.002Z,2.00
2024-03-16T00:03:30.749Z,1.60
2024-03-16T00:06:00.294Z,1.88
2024-03-16T00:08:28.885Z,1.77
2024-03-16T00:10:55.619Z,2.00
2024-03-16T00:13:22.120Z,1.88
2024-03-16T00:15:50.551Z,1.27
2024-03-16T00:18:17.380Z,1.45
2024-03-16T00:20:43.950Z,1.80
2024-03-16T00:23:10.517Z,1.60
2024-03-16T00:25:37.074Z,1.73
2024-03-16T00:28:03.872Z,1.83
2024-03-16T00:30:31.163Z,1.60
2024-03-16T00:32:57.755Z,1.17
2024-03-16T00:35:25.693Z,1.30
2024-03-16T00:37:52.280Z,1.30
2024-03-16T00:40:20.484Z,1.48
2024-03-16T00:42:47.522Z,1.13
2024-03-16T00:45:14.289Z,1.20
2024-03-16T00:47:40.871Z,1.10
2024-03-16T00:50:07.820Z,1.48
2024-03-16T00:52:34.343Z,1.40
2024-03-16T00:55:00.892Z,1.45
2024-03-16T00:57:27.425Z,1.25
2024-03-16T00:59:55.748Z,1.42
2024-03-16T01:02:22.315Z,1.15
2024-03-16T01:04:48.866Z,1.33
2024-03-16T01:07:16.263Z,1.40
2024-03-16T01:09:43.075Z,1.45
2024-03-16T01:12:09.569Z,1.20
2024-03-16T01:14:36.121Z,1.75
2024-03-16T01:17:03.255Z,1.60
2024-03-16T01:19:30.148Z,1.50
2024-03-16T01:21:56.768Z,1.13
2024-03-16T01:24:23.306Z,1.30
2024-03-16T01:26:50.233Z,1.50
2024-03-16T01:29:16.987Z,1.38
2024-03-16T01:31:43.613Z,1.75
2024-03-16T01:34:10.261Z,1.60
2024-03-16T01:36:36.932Z,1.67
2024-03-16T01:39:04.236Z,1.70
2024-03-16T01:41:31.040Z,1.88
2024-03-16T01:44:10.197Z,1.48
2024-03-16T01:49:03.289Z,1.35
2024-03-16T01:51:33.005Z,1.30
2024-03-16T01:53:59.521Z,1.50
2024-03-16T01:56:26.164Z,1.40
2024-03-16T01:58:52.731Z,1.88
2024-03-16T02:01:19.444Z,1.90
2024-03-16T02:03:47.824Z,1.33
2024-03-16T02:06:14.491Z,1.50
2024-03-16T02:08:41.837Z,1.38
2024-03-16T02:11:08.498Z,1.60
2024-03-16T02:13:35.150Z,1.63
2024-03-16T02:16:03.183Z,1.42
2024-03-16T02:18:29.827Z,1.50
2024-03-16T02:20:56.920Z,1.45
2024-03-16T02:23:23.922Z,1.45
2024-03-16T02:25:51.610Z,1.08
2024-03-16T02:28:18.147Z,1.20
2024-03-16T02:30:44.882Z,1.50
2024-03-16T02:33:11.784Z,1.50
2024-03-16T02:35:39.287Z,1.77
2024-03-16T02:38:05.902Z,1.52
2024-03-16T02:40:32.988Z,1.42
2024-03-16T02:42:59.548Z,1.30
2024-03-16T02:45:26.322Z,1.23
2024-03-16T02:47:53.357Z,1.27
2024-03-16T02:50:20.990Z,1.40
2024-03-16T02:52:47.673Z,1.23
2024-03-16T02:55:14.948Z,1.55
2024-03-16T02:57:41.623Z,1.10
2024-03-16T03:00:12.065Z,1.55
2024-03-16T03:02:39.289Z,1.20
2024-03-16T03:05:09.007Z,1.23
2024-03-16T03:07:35.494Z,1.33
2024-03-16T03:10:02.178Z,1.27
2024-03-16T03:12:29.238Z,1.50
2024-03-16T03:14:55.894Z,1.40
2024-03-16T03:17:22.394Z,1.30
2024-03-16T03:19:49.861Z,1.33
2024-03-16T03:22:16.520Z,1.30
2024-03-16T03:24:43.162Z,1.08
2024-03-16T03:27:09.936Z,1.25
2024-03-16T03:29:36.458Z,1.23
2024-03-16T03:32:03.079Z,1.42
2024-03-16T03:34:29.845Z,1.45
2024-03-16T03:36:56.431Z,1.10
2024-03-16T03:39:25.733Z,1.00
2024-03-16T03:41:53.714Z,1.25
2024-03-16T03:44:25.309Z,1.40
2024-03-16T03:46:52.752Z,1.40
2024-03-16T03:49:27.814Z,1.17
2024-03-16T03:51:55.281Z,1.25
2024-03-16T03:54:22.301Z,1.20
2024-03-16T03:56:48.878Z,1.30
2024-03-16T03:59:15.457Z,1.40
2024-03-16T04:01:42.049Z,1.20
2024-03-16T04:04:08.627Z,1.05
2024-03-16T04:06:35.215Z,1.25
2024-03-16T04:09:01.709Z,1.10
2024-03-16T04:11:28.271Z,1.20
2024-03-16T04:13:54.735Z,1.20
2024-03-16T04:16:21.320Z,1.10
2024-03-16T04:18:47.981Z,1.17
2024-03-16T04:21:14.630Z,1.30
2024-03-16T04:23:41.429Z,1.00
2024-03-16T04:26:08.356Z,1.20
2024-03-16T04:28:34.878Z,1.05
2024-03-16T04:31:01.423Z,1.00
2024-03-16T04:33:28.555Z,0.98
2024-03-16T04:35:55.133Z,0.90
2024-03-16T04:38:21.801Z,1.10
2024-03-16T04:40:48.397Z,1.10
2024-03-16T04:43:15.062Z,1.02
2024-03-16T04:45:41.759Z,0.95
2024-03-16T04:48:08.290Z,1.00
2024-03-16T04:50:34.953Z,1.60
2024-03-16T04:53:01.587Z,1.33
2024-03-16T04:55:28.243Z,0.90
2024-03-16T04:57:54.754Z,1.15
2024-03-16T05:00:21.256Z,1.40
2024-03-16T05:02:49.391Z,1.63
2024-03-16T05:05:15.900Z,0.90
2024-03-16T05:07:42.487Z,1.15
2024-03-16T05:10:09.974Z,1.20
2024-03-16T05:12:36.695Z,1.25
2024-03-16T05:15:03.432Z,1.40
2024-03-16T05:17:30.204Z,1.50
2024-03-16T05:19:58.933Z,1.70
2024-03-16T05:22:26.685Z,2.08
2024-03-16T05:24:53.473Z,1.80
2024-03-16T05:27:20.020Z,1.85
2024-03-16T05:29:46.529Z,1.80
2024-03-16T05:32:13.161Z,1.55
2024-03-16T05:34:40.922Z,1.95
2024-03-16T05:37:07.562Z,1.50
2024-03-16T05:39:34.258Z,1.60
2024-03-16T05:42:00.867Z,1.45
2024-03-16T05:44:27.453Z,1.67
2024-03-16T05:46:54.177Z,1.20
2024-03-16T05:49:20.791Z,1.20
2024-03-16T05:51:48.867Z,1.38
2024-03-16T05:54:15.332Z,1.25
2024-03-16T05:56:41.882Z,1.15
2024-03-16T05:59:11.977Z,1.40
2024-03-16T06:01:38.822Z,1.60
2024-03-16T06:04:05.421Z,1.67
2024-03-16T06:06:33.426Z,1.80
2024-03-16T06:09:00.117Z,2.00
2024-03-16T06:11:27.659Z,1.58
2024-03-16T06:13:54.192Z,1.58
2024-03-16T06:16:22.765Z,1.63
2024-03-16T06:18:49.726Z,1.75
2024-03-16T06:21:16.283Z,1.60
2024-03-16T06:23:43.583Z,1.77
2024-03-16T06:26:17.897Z,2.00
2024-03-16T06:28:48.111Z,2.03
2024-03-16T06:31:14.975Z,2.00
2024-03-16T06:33:46.648Z,2.15
2024-03-16T06:36:13.396Z,2.10
2024-03-16T06:38:39.920Z,2.33
2024-03-16T06:41:06.511Z,1.90
2024-03-16T06:43:33.678Z,2.38
2024-03-16T06:46:01.945Z,2.13
2024-03-16T06:48:36.710Z,2.20
2024-03-16T06:51:03.413Z,1.60
2024-03-16T06:53:30.055Z,1.83
2024-03-16T06:55:56.633Z,1.70
2024-03-16T06:58:23.804Z,1.40
2024-03-16T07:00:50.374Z,1.73
2024-03-16T07:03:16.956Z,1.67
2024-03-16T07:05:43.440Z,1.55
2024-03-16T07:08:11.899Z,1.75
2024-03-16T07:10:39.146Z,1.85
2024-03-16T07:13:07.671Z,1.30
2024-03-16T07:15:34.278Z,1.60
2024-03-16T07:18:00.901Z,1.70
2024-03-16T07:20:27.463Z,1.30
2024-03-16T07:22:55.345Z,1.73
2024-03-16T07:25:21.969Z,1.48
2024-03-16T07:27:49.120Z,1.30
2024-03-16T07:30:18.207Z,1.30
2024-03-16T07:32:44.762Z,1.50
2024-03-16T07:35:11.294Z,1.98
2024-03-16T07:37:37.733Z,1.75
2024-03-16T07:40:05.325Z,1.50
2024-03-16T07:42:31.860Z,1.63
2024-03-16T07:44:58.337Z,1.95
2024-03-16T07:47:24.975Z,1.70
2024-03-16T07:49:53.204Z,1.80
2024-03-16T07:52:19.750Z,2.10
2024-03-16T07:54:46.243Z,2.08
2024-03-16T07:57:12.720Z,1.60
2024-03-16T07:59:39.533Z,2.40
2024-03-16T08:02:07.325Z,2.22
2024-03-16T08:04:36.057Z,2.17
2024-03-16T08:07:02.532Z,2.60
2024-03-16T08:09:29.176Z,2.30
2024-03-16T08:11:55.919Z,2.20
2024-03-16T08:14:22.419Z,2.45
2024-03-16T08:16:48.967Z,2.35
2024-03-16T08:19:17.742Z,2.22
2024-03-16T08:21:44.412Z,2.53
2024-03-16T08:24:10.881Z,2.35
2024-03-16T08:26:37.349Z,2.72
2024-03-16T08:29:03.830Z,2.60
2024-03-16T08:31:30.485Z,2.53
2024-03-16T08:33:57.260Z,2.72
2024-03-16T08:36:24.447Z,2.70
2024-03-16T08:38:50.922Z,2.25
2024-03-16T08:41:17.403Z,2.30
2024-03-16T08:43:44.831Z,2.05
2024-03-16T08:46:11.410Z,2.40
2024-03-16T08:48:38.050Z,2.30
2024-03-16T08:51:05.794Z,2.13
2024-03-16T08:53:32.684Z,2.50
2024-03-16T08:56:00.963Z,2.10
2024-03-16T08:58:27.464Z,2.03
2024-03-16T09:00:54.658Z,1.92
2024-03-16T09:03:21.346Z,2.10
2024-03-16T09:05:48.870Z,1.98
2024-03-16T09:08:15.348Z,1.98
2024-03-16T09:10:41.828Z,2.40
2024-03-16T09:13:08.862Z,2.10
2024-03-16T09:15:35.490Z,2.33
2024-03-16T09:18:02.055Z,1.90
2024-03-16T09:20:28.531Z,2.05
2024-03-16T09:22:57.241Z,2.00
2024-03-16T09:25:23.893Z,2.28
2024-03-16T09:27:50.415Z,2.22
2024-03-16T09:30:19.106Z,1.92
2024-03-16T09:32:45.601Z,2.22
2024-03-16T09:35:12.331Z,2.13
2024-03-16T09:37:38.986Z,1.90
2024-03-16T09:40:11.388Z,1.98
2024-03-16T09:42:38.458Z,2.10
